Time;durP1;ratioP1;P1;durP2;ratioP2;P2;SDS_P1;SDS_P2;PMS_P1;PMS_P2;Temp;Humidity;BMP_temperature;BMP_pressure;BME280_temperature;BME280_humidity;BME280_pressure;Samples;Min_cycle;Max_cycle;Signal;HPM_P1;HPM_P2
2021/11/28 00:02:20;;;;;;;0.70;0.70;;;-3.50;99.90;;;;;;5015655;28;20206;-77
2021/11/28 00:04:47;;;;;;;0.80;0.80;;;-3.50;99.90;;;;;;5033325;28;20206;-77
2021/11/28 00:14:54;;;;;;;0.90;0.90;;;-3.60;99.90;;;;;;5033390;28;20229;-77
2021/11/28 00:17:20;;;;;;;0.90;0.90;;;-3.60;99.90;;;;;;5033204;28;20202;-76
2021/11/28 00:19:46;;;;;;;0.80;0.80;;;-3.60;99.90;;;;;;5033525;28;20547;-73
2021/11/28 00:22:11;;;;;;;0.80;0.80;;;-3.60;99.90;;;;;;5033046;28;20205;-73
2021/11/28 00:24:38;;;;;;;0.88;0.88;;;-3.60;99.90;;;;;;5015663;28;20636;-76
2021/11/28 00:27:05;;;;;;;0.90;0.90;;;-3.50;99.90;;;;;;5032876;28;20809;-74
2021/11/28 00:29:32;;;;;;;0.80;0.80;;;-3.50;99.90;;;;;;5032846;28;20716;-74
2021/11/28 00:31:58;;;;;;;1.17;1.07;;;-3.50;99.90;;;;;;5014782;28;20230;-74
2021/11/28 00:34:24;;;;;;;0.85;0.85;;;-3.50;99.90;;;;;;5015951;28;20221;-75
2021/11/28 00:36:50;;;;;;;0.70;0.70;;;-3.50;99.90;;;;;;5032684;28;20646;-75
2021/11/28 00:39:15;;;;;;;0.73;0.73;;;-3.50;99.90;;;;;;5033849;28;20277;-75
2021/11/28 00:41:41;;;;;;;0.90;0.90;;;-3.50;99.90;;;;;;5015636;28;20623;-75
2021/11/28 00:44:07;;;;;;;0.93;0.93;;;-3.60;99.90;;;;;;5014527;28;20248;-76
2021/11/28 00:46:33;;;;;;;1.00;1.00;;;-3.60;99.90;;;;;;5033351;28;20209;-75
2021/11/28 00:49:03;;;;;;;0.88;0.88;;;-3.60;99.90;;;;;;5032225;28;20684;-74
2021/11/28 00:51:48;;;;;;;0.88;0.88;;;-3.60;99.90;;;;;;5032135;28;20305;-76
2021/11/28 00:54:14;;;;;;;0.88;0.88;;;-3.60;99.90;;;;;;5014732;28;20570;-76
2021/11/28 00:56:40;;;;;;;0.93;0.93;;;-3.60;99.90;;;;;;5032216;28;20217;-75
2021/11/28 00:59:06;;;;;;;0.93;0.93;;;-3.60;99.90;;;;;;5033536;28;20198;-76
2021/11/28 01:01:34;;;;;;;0.85;0.85;;;-3.60;99.90;;;;;;5033272;28;20210;-75
2021/11/28 01:04:02;;;;;;;0.90;0.90;;;-3.50;99.90;;;;;;5031908;28;20190;-74
2021/11/28 01:06:28;;;;;;;0.90;0.90;;;-3.60;99.90;;;;;;5014155;28;20807;-75
2021/11/28 01:08:54;;;;;;;0.80;0.80;;;-3.50;99.90;;;;;;5033125;28;20312;-74
2021/11/28 01:11:23;;;;;;;0.90;0.90;;;-3.60;99.90;;;;;;5013765;28;20581;-74
2021/11/28 01:13:50;;;;;;;0.90;0.90;;;-3.50;99.90;;;;;;5031906;28;20198;-75
2021/11/28 01:16:16;;;;;;;0.80;0.80;;;-3.50;99.90;;;;;;5031953;28;20202;-74
2021/11/28 01:18:42;;;;;;;0.80;0.80;;;-3.50;99.90;;;;;;5031787;28;20232;-73
2021/11/28 01:21:08;;;;;;;0.88;0.88;;;-3.50;99.90;;;;;;5033249;28;20251;-73
2021/11/28 01:23:34;;;;;;;1.00;1.00;;;-3.50;99.90;;;;;;5031801;28;20271;-71
2021/11/28 01:25:59;;;;;;;0.90;0.90;;;-3.50;99.90;;;;;;5031905;28;20712;-76
2021/11/28 01:28:25;;;;;;;0.90;0.90;;;-3.50;99.90;;;;;;5031972;28;20233;-75
2021/11/28 01:30:52;;;;;;;0.90;0.90;;;-3.60;99.90;;;;;;5014584;28;20275;-75
2021/11/28 01:33:17;;;;;;;0.80;0.80;;;-3.60;99.90;;;;;;5014173;28;20210;-75
2021/11/28 01:35:43;;;;;;;1.00;1.00;;;-3.60;99.90;;;;;;5031627;28;20577;-75
2021/11/28 01:38:09;;;;;;;0.90;0.90;;;-3.50;99.90;;;;;;5014069;28;20289;-76
2021/11/28 01:40:35;;;;;;;1.00;1.00;;;-3.60;99.90;;;;;;5031400;28;20198;-75
2021/11/28 01:43:07;;;;;;;0.70;0.70;;;-3.60;99.90;;;;;;5013999;28;20210;-74
2021/11/28 01:45:35;;;;;;;0.90;0.90;;;-3.60;99.90;;;;;;5014754;28;20209;-75
2021/11/28 01:48:04;;;;;;;0.90;0.90;;;-3.60;99.90;;;;;;5033050;28;20696;-75
2021/11/28 01:50:32;;;;;;;0.80;0.80;;;-3.60;99.90;;;;;;5013607;28;20688;-76
2021/11/28 01:52:58;;;;;;;0.80;0.80;;;-3.60;99.90;;;;;;5031929;28;20281;-75
2021/11/28 01:55:27;;;;;;;0.90;0.90;;;-3.60;99.90;;;;;;5030883;28;20580;-75
2021/11/28 01:57:54;;;;;;;0.80;0.80;;;-3.60;99.90;;;;;;5023961;28;20205;-75
2021/11/28 02:00:23;;;;;;;0.85;0.85;;;-3.60;99.90;;;;;;5027111;28;20735;-74
2021/11/28 02:02:49;;;;;;;0.80;0.80;;;-3.50;99.90;;;;;;5031361;28;20545;-71
2021/11/28 02:05:15;;;;;;;0.85;0.85;;;-3.50;99.90;;;;;;5032232;28;20221;-71
2021/11/28 02:07:42;;;;;;;0.80;0.80;;;-3.60;99.90;;;;;;5032053;28;20214;-71
2021/11/28 02:10:09;;;;;;;0.95;0.95;;;-3.60;99.90;;;;;;5030776;28;20320;-71
2021/11/28 02:12:35;;;;;;;0.80;0.80;;;-3.60;99.90;;;;;;5014169;28;20298;-71
2021/11/28 02:15:02;;;;;;;0.82;0.82;;;-3.60;99.90;;;;;;5030908;28;20297;-72
2021/11/28 02:17:28;;;;;;;0.73;0.73;;;-3.60;99.90;;;;;;5030642;28;20640;-71
2021/11/28 02:19:53;;;;;;;0.88;0.88;;;-3.70;99.90;;;;;;5031021;28;20688;-71
2021/11/28 02:22:20;;;;;;;0.80;0.80;;;-3.70;99.90;;;;;;5032073;28;20198;-71
2021/11/28 02:24:46;;;;;;;0.70;0.70;;;-3.70;99.90;;;;;;5030800;28;20206;-71
2021/11/28 02:27:12;;;;;;;0.80;0.80;;;-3.70;99.90;;;;;;5032075;28;20198;-71
2021/11/28 02:29:39;;;;;;;1.80;1.63;;;-3.70;99.90;;;;;;5030496;28;20205;-71
2021/11/28 02:32:05;;;;;;;0.90;0.90;;;-3.70;99.90;;;;;;5030774;28;20198;-71
2021/11/28 02:34:31;;;;;;;0.93;0.93;;;-3.70;99.90;;;;;;5031730;28;20621;-71
2021/11/28 02:36:56;;;;;;;0.80;0.80;;;-3.70;99.90;;;;;;5017028;28;20190;-71
2021/11/28 02:39:22;;;;;;;1.00;1.00;;;-3.80;99.90;;;;;;5034430;28;20285;-71
2021/11/28 02:41:49;;;;;;;0.85;0.85;;;-3.80;99.90;;;;;;5034861;28;20213;-71
2021/11/28 02:44:16;;;;;;;0.80;0.80;;;-3.90;99.90;;;;;;5034284;28;20271;-71
2021/11/28 02:46:43;;;;;;;0.82;0.82;;;-3.90;99.90;;;;;;5035520;28;20284;-71
2021/11/28 02:49:09;;;;;;;0.90;0.90;;;-3.80;99.90;;;;;;5034276;28;20211;-71
2021/11/28 02:51:36;;;;;;;0.80;0.80;;;-3.80;99.90;;;;;;5016324;28;20213;-71
2021/11/28 02:54:03;;;;;;;0.85;0.85;;;-3.80;99.90;;;;;;5034245;28;20568;-71
2021/11/28 02:56:29;;;;;;;0.80;0.80;;;-3.90;99.90;;;;;;5033789;28;20684;-71
2021/11/28 02:58:55;;;;;;;1.15;1.15;;;-3.90;99.90;;;;;;5033901;28;20214;-71
2021/11/28 03:01:22;;;;;;;0.80;0.80;;;-3.90;99.90;;;;;;5031314;28;20209;-71
2021/11/28 03:03:49;;;;;;;1.63;1.52;;;-3.90;99.90;;;;;;5016158;28;20661;-71
2021/11/28 03:06:15;;;;;;;0.90;0.90;;;-3.90;99.90;;;;;;5015853;28;20214;-71
2021/11/28 03:08:41;;;;;;;0.80;0.80;;;-3.80;99.90;;;;;;5034882;28;20248;-72
2021/11/28 03:11:12;;;;;;;0.80;0.80;;;-3.80;99.90;;;;;;5016009;28;20214;-72
2021/11/28 03:13:44;;;;;;;0.93;0.93;;;-3.80;99.90;;;;;;5016973;28;20209;-72
2021/11/28 03:16:16;;;;;;;0.90;0.90;;;-3.80;99.90;;;;;;5034922;28;20552;-72
2021/11/28 03:18:42;;;;;;;0.97;0.97;;;-3.80;99.90;;;;;;5033546;28;20198;-72
2021/11/28 03:21:13;;;;;;;0.90;0.90;;;-3.80;99.90;;;;;;5033615;28;20206;-72
2021/11/28 03:23:42;;;;;;;0.80;0.80;;;-3.70;99.90;;;;;;5015668;28;20210;-72
2021/11/28 03:26:08;;;;;;;0.85;0.85;;;-3.70;99.90;;;;;;5033264;28;20219;-72
2021/11/28 03:28:35;;;;;;;0.82;0.82;;;-3.70;99.90;;;;;;5033338;28;20194;-73
2021/11/28 03:31:01;;;;;;;0.80;0.80;;;-3.70;99.90;;;;;;5033548;28;20293;-72
2021/11/28 03:33:27;;;;;;;0.70;0.70;;;-3.60;99.90;;;;;;5033441;28;20205;-72
2021/11/28 03:35:53;;;;;;;0.90;0.90;;;-3.60;99.90;;;;;;5016225;28;20284;-72
2021/11/28 03:38:18;;;;;;;2.03;1.88;;;-3.50;99.90;;;;;;5034071;28;20194;-72
2021/11/28 03:40:44;;;;;;;0.95;0.95;;;-3.50;99.90;;;;;;5034299;28;20202;-71
2021/11/28 03:43:10;;;;;;;0.80;0.80;;;-3.50;99.90;;;;;;5015225;28;20339;-71
2021/11/28 03:45:36;;;;;;;0.80;0.80;;;-3.50;99.90;;;;;;5033932;28;20206;-72
2021/11/28 03:48:02;;;;;;;0.80;0.80;;;-3.50;99.90;;;;;;5033030;28;20210;-72
2021/11/28 03:50:28;;;;;;;0.90;0.90;;;-3.50;99.90;;;;;;5032871;28;20238;-72
2021/11/28 03:52:53;;;;;;;0.88;0.88;;;-3.50;99.90;;;;;;5016240;28;20238;-72
2021/11/28 03:55:21;;;;;;;0.85;0.85;;;-3.40;99.90;;;;;;5032581;28;20241;-72
2021/11/28 03:57:47;;;;;;;0.80;0.80;;;-3.50;99.90;;;;;;5016372;28;20199;-72
2021/11/28 04:00:13;;;;;;;0.90;0.90;;;-3.50;99.90;;;;;;5032630;28;20212;-72
2021/11/28 04:02:39;;;;;;;0.80;0.80;;;-3.50;99.90;;;;;;5031728;28;20691;-72
2021/11/28 04:05:06;;;;;;;0.95;0.95;;;-3.50;99.90;;;;;;5032682;28;20213;-72
2021/11/28 04:07:32;;;;;;;0.80;0.80;;;-3.50;99.90;;;;;;5015880;28;20720;-72
2021/11/28 04:09:58;;;;;;;0.70;0.70;;;-3.40;99.90;;;;;;5032506;28;20218;-72
2021/11/28 04:12:24;;;;;;;0.90;0.90;;;-3.40;99.90;;;;;;5032481;28;20202;-72
2021/11/28 04:14:50;;;;;;;1.00;1.00;;;-3.40;99.90;;;;;;5032548;28;20213;-72
2021/11/28 04:17:16;;;;;;;0.85;0.85;;;-3.50;99.90;;;;;;5033886;28;20197;-71
2021/11/28 04:19:41;;;;;;;0.90;0.90;;;-3.50;99.90;;;;;;5033949;28;20237;-72
2021/11/28 04:22:07;;;;;;;0.90;0.90;;;-3.50;99.90;;;;;;5032489;28;20654;-72
2021/11/28 04:24:33;;;;;;;0.90;0.90;;;-3.40;99.90;;;;;;5014658;28;20232;-72
2021/11/28 04:26:58;;;;;;;0.85;0.85;;;-3.40;99.90;;;;;;5033693;28;20222;-73
2021/11/28 04:29:25;;;;;;;0.80;0.80;;;-3.40;99.90;;;;;;5033416;28;20236;-72
2021/11/28 04:31:51;;;;;;;0.63;0.63;;;-3.40;99.90;;;;;;5015754;28;20206;-72
2021/11/28 04:34:17;;;;;;;0.88;0.88;;;-3.40;99.90;;;;;;5032268;28;20217;-73
2021/11/28 04:36:43;;;;;;;0.90;0.90;;;-3.40;99.90;;;;;;5032054;28;20344;-72
2021/11/28 04:39:09;;;;;;;0.90;0.90;;;-3.40;99.90;;;;;;5032080;28;20563;-73
2021/11/28 04:41:34;;;;;;;0.80;0.80;;;-3.40;99.90;;;;;;5031876;28;20220;-72
2021/11/28 04:44:00;;;;;;;0.80;0.80;;;-3.40;99.90;;;;;;5032103;28;20289;-72
2021/11/28 04:46:26;;;;;;;0.80;0.80;;;-3.40;99.90;;;;;;5014297;28;20221;-72
2021/11/28 04:48:51;;;;;;;0.90;0.90;;;-3.40;99.90;;;;;;5013382;28;20198;-73
2021/11/28 04:51:17;;;;;;;0.90;0.90;;;-3.40;99.90;;;;;;5013970;28;20210;-72
2021/11/28 04:53:43;;;;;;;0.75;0.75;;;-3.40;99.90;;;;;;5031853;28;20209;-72
2021/11/28 04:56:09;;;;;;;0.82;0.82;;;-3.40;99.90;;;;;;5033013;28;20281;-72
2021/11/28 04:58:34;;;;;;;0.90;0.90;;;-3.40;99.90;;;;;;5013455;28;20651;-72
2021/11/28 05:01:00;;;;;;;0.80;0.80;;;-3.40;99.90;;;;;;5013906;28;20273;-72
2021/11/28 05:03:26;;;;;;;0.70;0.70;;;-3.40;99.90;;;;;;5031497;28;20578;-72
2021/11/28 05:05:52;;;;;;;0.80;0.80;;;-3.40;99.90;;;;;;5031752;28;20653;-72
2021/11/28 05:08:18;;;;;;;0.77;0.77;;;-3.40;99.90;;;;;;5013748;28;20284;-73
2021/11/28 05:10:44;;;;;;;0.80;0.80;;;-3.50;99.90;;;;;;5031733;28;20300;-72
2021/11/28 05:13:09;;;;;;;0.75;0.75;;;-3.50;99.90;;;;;;5031870;28;20244;-72
2021/11/28 05:15:35;;;;;;;0.90;0.90;;;-3.40;99.90;;;;;;5032543;28;20214;-71
2021/11/28 05:18:00;;;;;;;0.80;0.80;;;-3.40;99.90;;;;;;5031325;28;20541;-72
2021/11/28 05:20:26;;;;;;;0.90;0.90;;;-3.40;99.90;;;;;;5032659;28;20576;-72
2021/11/28 05:22:52;;;;;;;1.02;1.02;;;-3.40;99.90;;;;;;5032767;28;20209;-71
2021/11/28 05:25:17;;;;;;;0.80;0.80;;;-3.40;99.90;;;;;;5013433;28;20229;-71
2021/11/28 05:27:46;;;;;;;0.80;0.80;;;-3.50;99.90;;;;;;5032521;28;20206;-73
2021/11/28 05:30:12;;;;;;;0.90;0.90;;;-3.50;99.90;;;;;;5013507;28;20359;-73
2021/11/28 05:32:37;;;;;;;0.90;0.90;;;-3.50;99.90;;;;;;5032434;28;20300;-71
2021/11/28 05:35:04;;;;;;;0.70;0.70;;;-3.50;99.90;;;;;;5014524;28;20214;-74
2021/11/28 05:37:30;;;;;;;0.90;0.90;;;-3.50;99.90;;;;;;5031123;28;20669;-71
2021/11/28 05:39:56;;;;;;;0.77;0.77;;;-3.50;99.90;;;;;;5031322;28;20192;-71
2021/11/28 05:42:22;;;;;;;0.90;0.90;;;-3.50;99.90;;;;;;5030813;28;20198;-71
2021/11/28 05:44:47;;;;;;;0.73;0.73;;;-3.50;99.90;;;;;;5031021;28;20699;-71
2021/11/28 05:47:13;;;;;;;0.70;0.70;;;-3.50;99.90;;;;;;5030814;28;20216;-71
2021/11/28 05:49:39;;;;;;;0.70;0.70;;;-3.50;99.90;;;;;;5013159;28;20271;-71
2021/11/28 05:52:05;;;;;;;0.70;0.70;;;-3.50;99.90;;;;;;5031136;28;20248;-71
2021/11/28 05:54:31;;;;;;;0.90;0.90;;;-3.50;99.90;;;;;;5013322;28;20198;-71
2021/11/28 05:56:56;;;;;;;0.88;0.88;;;-3.60;99.90;;;;;;5031110;28;20487;-72
2021/11/28 05:59:22;;;;;;;0.90;0.90;;;-3.60;99.90;;;;;;5013350;28;20210;-71
2021/11/28 06:01:48;;;;;;;0.90;0.90;;;-3.60;99.90;;;;;;5030714;28;20616;-71
2021/11/28 06:04:14;;;;;;;0.90;0.90;;;-3.60;99.90;;;;;;5032191;28;20625;-71
2021/11/28 06:06:39;;;;;;;0.90;0.90;;;-3.60;99.90;;;;;;5012801;28;20210;-72
2021/11/28 06:09:05;;;;;;;0.90;0.90;;;-3.70;99.90;;;;;;5031154;28;20309;-72
2021/11/28 06:11:31;;;;;;;0.75;0.75;;;-3.70;99.90;;;;;;5016727;28;20304;-71
2021/11/28 06:13:56;;;;;;;0.90;0.90;;;-3.70;99.90;;;;;;5016823;28;20202;-71
2021/11/28 06:16:22;;;;;;;0.90;0.90;;;-3.70;99.90;;;;;;5034303;28;20213;-71
2021/11/28 06:18:48;;;;;;;0.90;0.90;;;-3.80;99.90;;;;;;5034722;28;20225;-72
2021/11/28 06:21:14;;;;;;;1.25;1.25;;;-3.90;99.90;;;;;;5016631;28;20213;-72
2021/11/28 06:23:39;;;;;;;0.98;0.98;;;-3.90;99.90;;;;;;5034500;28;20210;-71
2021/11/28 06:26:05;;;;;;;0.82;0.82;;;-3.90;99.90;;;;;;5028621;28;20368;-71
2021/11/28 06:28:32;;;;;;;3.90;2.63;;;-3.90;99.90;;;;;;5016343;28;20288;-71
2021/11/28 06:30:58;;;;;;;1.40;1.30;;;-3.90;99.90;;;;;;5034278;28;20695;-71
2021/11/28 06:33:24;;;;;;;0.88;0.88;;;-3.90;99.90;;;;;;5034162;28;20198;-71
2021/11/28 06:35:49;;;;;;;1.60;1.50;;;-3.90;99.90;;;;;;5035664;28;20214;-71
2021/11/28 06:38:15;;;;;;;0.70;0.70;;;-3.90;99.90;;;;;;5034192;28;20205;-71
2021/11/28 06:40:41;;;;;;;0.80;0.80;;;-3.90;99.90;;;;;;5016099;28;20202;-71
2021/11/28 06:43:07;;;;;;;0.80;0.80;;;-3.90;99.90;;;;;;5016363;28;20206;-71
2021/11/28 06:45:33;;;;;;;0.80;0.80;;;-3.90;99.90;;;;;;5017585;28;20198;-71
2021/11/28 06:47:59;;;;;;;0.80;0.80;;;-3.90;99.90;;;;;;5034416;28;20276;-71
2021/11/28 06:50:25;;;;;;;1.42;1.33;;;-3.90;99.90;;;;;;5034000;28;20305;-70
2021/11/28 06:52:51;;;;;;;0.80;0.80;;;-3.90;99.90;;;;;;5034425;28;20280;-71
2021/11/28 06:55:17;;;;;;;0.85;0.85;;;-3.90;99.90;;;;;;5033832;28;20214;-71
2021/11/28 06:57:43;;;;;;;0.90;0.90;;;-3.90;99.90;;;;;;5015906;28;20206;-71
2021/11/28 07:00:09;;;;;;;0.90;0.90;;;-4.00;99.90;;;;;;5033836;28;20210;-71
2021/11/28 07:02:35;;;;;;;0.80;0.80;;;-4.00;99.90;;;;;;5015741;28;20208;-71
2021/11/28 07:05:00;;;;;;;0.70;0.70;;;-4.00;99.90;;;;;;5033749;28;20696;-72
2021/11/28 07:07:27;;;;;;;0.70;0.70;;;-4.00;99.90;;;;;;5015594;28;20661;-72
2021/11/28 07:09:53;;;;;;;0.80;0.80;;;-4.00;99.90;;;;;;5016683;28;20634;-72
2021/11/28 07:12:19;;;;;;;0.80;0.80;;;-4.00;99.90;;;;;;5034958;28;20202;-71
2021/11/28 07:14:45;;;;;;;0.80;0.80;;;-4.10;99.90;;;;;;5015596;28;20281;-73
2021/11/28 07:17:10;;;;;;;0.90;0.90;;;-4.00;99.90;;;;;;5033395;28;20685;-73
2021/11/28 07:19:36;;;;;;;0.90;0.90;;;-4.00;99.90;;;;;;5034274;28;20198;-72
2021/11/28 07:22:02;;;;;;;1.20;1.10;;;-4.00;99.90;;;;;;5033279;28;20324;-72
2021/11/28 07:24:28;;;;;;;0.90;0.90;;;-3.90;99.90;;;;;;5033258;28;20195;-73
2021/11/28 07:26:54;;;;;;;0.80;0.80;;;-3.90;99.90;;;;;;5033500;28;20691;-74
2021/11/28 07:29:20;;;;;;;1.40;1.30;;;-3.90;99.90;;;;;;5033079;28;20214;-72
2021/11/28 07:31:46;;;;;;;10.93;2.50;;;-3.90;99.90;;;;;;5033290;28;20206;-72
2021/11/28 07:34:12;;;;;;;1.35;1.25;;;-3.90;99.90;;;;;;5034437;28;20248;-72
2021/11/28 07:36:37;;;;;;;0.93;0.93;;;-3.90;99.90;;;;;;5032999;28;20218;-72
2021/11/28 07:39:07;;;;;;;1.02;1.02;;;-4.00;99.90;;;;;;5015443;28;20205;-73
2021/11/28 07:41:33;;;;;;;0.80;0.80;;;-4.00;99.90;;;;;;5033978;28;20248;-73
2021/11/28 07:43:59;;;;;;;0.80;0.80;;;-4.00;99.90;;;;;;5033249;28;20198;-72
2021/11/28 07:46:24;;;;;;;1.40;1.30;;;-4.10;99.90;;;;;;5034435;28;20213;-71
2021/11/28 07:48:51;;;;;;;0.90;0.90;;;-4.00;99.90;;;;;;5015195;28;20217;-73
2021/11/28 07:51:17;;;;;;;0.80;0.80;;;-4.00;99.90;;;;;;5032847;28;20752;-72
2021/11/28 07:53:46;;;;;;;0.88;0.88;;;-4.00;99.90;;;;;;5033977;28;20235;-72
2021/11/28 07:56:12;;;;;;;1.23;1.20;;;-4.00;99.90;;;;;;5033999;28;20207;-71
2021/11/28 07:58:38;;;;;;;0.90;0.90;;;-4.00;99.90;;;;;;5033720;28;20661;-72
2021/11/28 08:01:04;;;;;;;1.52;1.42;;;-3.90;99.90;;;;;;5014671;28;20309;-73
2021/11/28 08:03:29;;;;;;;1.00;1.00;;;-3.90;99.90;;;;;;5032472;28;20206;-74
2021/11/28 08:05:58;;;;;;;0.80;0.80;;;-3.80;99.90;;;;;;5032567;28;20200;-72
2021/11/28 08:08:27;;;;;;;0.93;0.93;;;-3.80;99.90;;;;;;5032244;28;20640;-74
2021/11/28 08:10:54;;;;;;;1.00;1.00;;;-3.80;99.90;;;;;;5032554;28;20198;-75
2021/11/28 08:13:21;;;;;;;0.80;0.80;;;-3.80;99.90;;;;;;5014471;28;20210;-73
2021/11/28 08:15:47;;;;;;;0.88;0.88;;;-3.80;99.90;;;;;;5032480;28;20212;-72
2021/11/28 08:18:13;;;;;;;1.15;1.15;;;-3.90;99.90;;;;;;5015868;28;20202;-73
2021/11/28 08:20:39;;;;;;;0.82;0.82;;;-3.80;99.90;;;;;;5032212;28;20232;-73
2021/11/28 08:23:04;;;;;;;0.90;0.90;;;-3.80;99.90;;;;;;5032562;28;20212;-72
2021/11/28 08:25:31;;;;;;;0.80;0.80;;;-3.70;99.90;;;;;;5016442;28;20289;-72
2021/11/28 08:27:57;;;;;;;1.50;1.40;;;-3.70;99.90;;;;;;5014634;28;20566;-71
2021/11/28 08:30:23;;;;;;;0.90;0.90;;;-3.70;99.90;;;;;;5032085;28;20289;-71
2021/11/28 08:32:49;;;;;;;1.73;1.63;;;-3.70;99.90;;;;;;5031322;28;20602;-72
2021/11/28 08:35:16;;;;;;;0.82;0.82;;;-3.70;99.90;;;;;;5031860;28;20695;-71
2021/11/28 08:37:42;;;;;;;0.80;0.80;;;-3.70;99.90;;;;;;5031764;28;20684;-72
2021/11/28 08:40:09;;;;;;;0.88;0.88;;;-3.70;99.90;;;;;;5032139;28;20198;-72
2021/11/28 08:42:36;;;;;;;1.55;1.45;;;-3.80;99.90;;;;;;5032118;28;20656;-73
2021/11/28 08:45:05;;;;;;;0.70;0.70;;;-3.80;99.90;;;;;;5031898;28;20312;-74
2021/11/28 08:47:30;;;;;;;0.90;0.90;;;-3.80;99.90;;;;;;5015456;28;20236;-72
2021/11/28 08:49:56;;;;;;;0.82;0.82;;;-3.90;99.90;;;;;;5014425;28;20258;-72
2021/11/28 08:52:22;;;;;;;0.80;0.80;;;-3.90;99.90;;;;;;5032070;28;20206;-72
2021/11/28 08:54:48;;;;;;;0.80;0.80;;;-3.80;99.90;;;;;;5031710;28;20653;-73
2021/11/28 08:57:14;;;;;;;0.80;0.80;;;-3.90;99.90;;;;;;5033047;28;20570;-71
2021/11/28 08:59:42;;;;;;;0.80;0.80;;;-3.90;99.90;;;;;;5031484;28;20201;-72
2021/11/28 09:02:09;;;;;;;0.95;0.95;;;-3.90;99.90;;;;;;5031297;28;20669;-73
2021/11/28 09:04:35;;;;;;;0.80;0.80;;;-3.90;99.90;;;;;;5031557;28;20194;-73
2021/11/28 09:07:01;;;;;;;0.90;0.90;;;-3.80;99.90;;;;;;5031504;28;20291;-74
2021/11/28 09:09:27;;;;;;;0.90;0.90;;;-3.80;99.90;;;;;;5031242;28;20274;-71
2021/11/28 09:11:54;;;;;;;0.90;0.90;;;-3.80;99.90;;;;;;5013746;28;20206;-74
2021/11/28 09:14:19;;;;;;;1.25;1.23;;;-3.80;99.90;;;;;;5031304;28;20296;-73
2021/11/28 09:16:45;;;;;;;0.95;0.95;;;-3.80;99.90;;;;;;5032689;28;20777;-74
2021/11/28 09:21:37;;;;;;;0.98;0.98;;;-3.60;99.90;;;;;;5031464;28;20202;-71
2021/11/28 09:26:47;;;;;;;0.90;0.90;;;-3.60;99.90;;;;;;5020910;28;20205;-74
2021/11/28 09:29:13;;;;;;;0.80;0.80;;;-3.50;99.90;;;;;;5032595;28;20197;-72
2021/11/28 09:31:38;;;;;;;0.85;0.85;;;-3.40;99.90;;;;;;5028517;28;20210;-73
2021/11/28 09:34:04;;;;;;;0.80;0.80;;;-3.40;99.90;;;;;;5020359;28;20213;-74
2021/11/28 09:36:32;;;;;;;0.90;0.90;;;-3.40;99.90;;;;;;5011327;28;20293;-73
2021/11/28 09:38:59;;;;;;;0.80;0.80;;;-3.40;99.90;;;;;;5014015;28;20564;-72
2021/11/28 09:41:30;;;;;;;0.90;0.90;;;-3.40;99.90;;;;;;5028616;28;20198;-73
2021/11/28 09:43:58;;;;;;;0.90;0.90;;;-3.40;99.90;;;;;;5030000;28;20198;-74
2021/11/28 09:46:25;;;;;;;0.80;0.80;;;-3.40;99.90;;;;;;5031091;28;20292;-73
2021/11/28 09:49:01;;;;;;;0.90;0.90;;;-3.40;99.90;;;;;;5010295;28;20606;-73
2021/11/28 09:51:28;;;;;;;0.80;0.80;;;-3.40;99.90;;;;;;5030804;28;20233;-72
2021/11/28 09:53:57;;;;;;;0.80;0.80;;;-3.40;99.90;;;;;;5031126;28;20213;-74
2021/11/28 09:56:24;;;;;;;1.30;1.20;;;-3.30;99.90;;;;;;5030906;28;20216;-75
2021/11/28 09:58:50;;;;;;;0.90;0.90;;;-3.30;99.90;;;;;;5032335;28;20573;-72
2021/11/28 10:01:16;;;;;;;0.80;0.80;;;-3.20;99.90;;;;;;5012968;28;20206;-72
2021/11/28 10:03:42;;;;;;;0.80;0.80;;;-3.20;99.90;;;;;;5030745;28;20259;-74
2021/11/28 10:06:08;;;;;;;1.98;1.75;;;-3.20;99.90;;;;;;5030873;28;20297;-73
2021/11/28 10:08:34;;;;;;;0.75;0.75;;;-3.20;99.90;;;;;;5030595;28;20230;-73
2021/11/28 10:11:16;;;;;;;0.80;0.80;;;-3.10;99.90;;;;;;5030949;28;20612;-72
2021/11/28 10:13:43;;;;;;;0.90;0.90;;;-3.20;99.90;;;;;;5031940;28;20210;-72
2021/11/28 10:16:09;;;;;;;0.95;0.95;;;-3.10;99.90;;;;;;5030841;28;20241;-73
2021/11/28 10:18:36;;;;;;;0.90;0.90;;;-3.10;99.90;;;;;;5030609;28;20230;-72
2021/11/28 10:21:03;;;;;;;0.90;0.90;;;-3.00;99.90;;;;;;5014220;28;20567;-72
2021/11/28 10:23:28;;;;;;;0.80;0.80;;;-3.00;99.90;;;;;;5012857;28;20202;-72
2021/11/28 10:26:18;;;;;;;4.00;2.55;;;-3.00;99.90;;;;;;5012980;28;20198;-72
2021/11/28 10:29:13;;;;;;;0.70;0.70;;;-2.90;99.90;;;;;;5031970;28;20284;-72
2021/11/28 10:31:47;;;;;;;1.95;1.15;;;-2.90;99.90;;;;;;5012738;28;20206;-72
2021/11/28 10:34:27;;;;;;;0.80;0.80;;;-2.90;99.90;;;;;;5030528;28;20508;-72
2021/11/28 10:37:01;;;;;;;0.80;0.80;;;-2.90;99.90;;;;;;5030673;28;20206;-73
2021/11/28 10:39:27;;;;;;;0.90;0.90;;;-2.80;99.90;;;;;;5027668;28;20253;-72
2021/11/28 10:41:55;;;;;;;0.90;0.90;;;-2.80;99.90;;;;;;5024076;28;20333;-72
2021/11/28 10:44:24;;;;;;;0.77;0.77;;;-2.70;99.90;;;;;;5031654;28;20213;-73
2021/11/28 10:46:51;;;;;;;0.80;0.80;;;-2.70;99.90;;;;;;5031759;28;20253;-72
2021/11/28 10:49:20;;;;;;;1.00;1.00;;;-2.70;99.90;;;;;;5030444;28;20297;-73
2021/11/28 10:51:50;;;;;;;0.80;0.80;;;-2.80;99.90;;;;;;5030553;28;20202;-72
2021/11/28 10:54:35;;;;;;;0.90;0.90;;;-2.70;99.90;;;;;;5031793;28;20217;-72
2021/11/28 10:57:21;;;;;;;0.80;0.80;;;-2.70;99.90;;;;;;5035094;28;20754;-72
2021/11/28 11:00:07;;;;;;;0.90;0.90;;;-2.60;99.90;;;;;;5034039;28;20202;-72
2021/11/28 11:02:38;;;;;;;0.98;0.98;;;-2.60;99.90;;;;;;5033692;28;20281;-73
2021/11/28 11:05:12;;;;;;;1.20;1.13;;;-2.50;99.90;;;;;;5033856;28;20198;-73
2021/11/28 11:07:51;;;;;;;0.88;0.88;;;-2.50;99.90;;;;;;5015769;28;20360;-70
2021/11/28 11:10:33;;;;;;;0.82;0.82;;;-2.50;99.90;;;;;;5034850;28;20228;-71
2021/11/28 11:12:59;;;;;;;0.82;0.82;;;-2.40;99.90;;;;;;5034983;28;20292;-72
2021/11/28 11:15:47;;;;;;;0.85;0.85;;;-2.50;99.90;;;;;;5033494;28;20305;-75
2021/11/28 11:18:15;;;;;;;0.90;0.90;;;-2.50;99.90;;;;;;5033455;28;20612;-72
2021/11/28 11:20:44;;;;;;;0.80;0.80;;;-2.40;99.90;;;;;;5034626;28;20294;-72
2021/11/28 11:23:33;;;;;;;0.80;0.80;;;-2.40;99.90;;;;;;5015736;28;20539;-73
2021/11/28 11:26:20;;;;;;;0.90;0.90;;;-2.30;99.90;;;;;;5033537;28;20650;-71
2021/11/28 11:29:04;;;;;;;0.75;0.75;;;-2.30;99.90;;;;;;5014841;28;20222;-77
2021/11/28 11:31:29;;;;;;;0.70;0.70;;;-2.30;99.90;;;;;;5032594;28;20252;-72
2021/11/28 11:33:55;;;;;;;0.73;0.73;;;-2.30;99.90;;;;;;5015994;28;20214;-71
2021/11/28 11:36:23;;;;;;;1.75;1.65;;;-2.30;99.90;;;;;;5032951;28;20206;-71
2021/11/28 11:38:52;;;;;;;0.80;0.80;;;-2.20;99.90;;;;;;5032562;28;20202;-71
2021/11/28 11:41:18;;;;;;;0.95;0.95;;;-2.20;99.90;;;;;;5034094;28;20633;-71
2021/11/28 11:43:46;;;;;;;0.90;0.90;;;-2.20;99.90;;;;;;5033292;28;20657;-71
2021/11/28 11:46:14;;;;;;;0.80;0.80;;;-2.30;99.90;;;;;;5015398;28;20213;-71
2021/11/28 11:48:41;;;;;;;0.80;0.80;;;-2.20;99.90;;;;;;5033024;28;20213;-71
2021/11/28 11:51:09;;;;;;;0.70;0.70;;;-2.20;99.90;;;;;;5015169;28;20206;-71
2021/11/28 11:53:35;;;;;;;0.80;0.80;;;-2.20;99.90;;;;;;5015023;28;20700;-71
2021/11/28 11:56:01;;;;;;;1.00;1.00;;;-2.20;99.90;;;;;;5034270;28;20251;-72
2021/11/28 11:58:43;;;;;;;0.65;0.65;;;-2.20;99.90;;;;;;5032967;28;20216;-71
2021/11/28 12:01:23;;;;;;;0.85;0.85;;;-2.20;99.90;;;;;;5032806;28;20198;-71
2021/11/28 12:03:54;;;;;;;0.80;0.80;;;-2.20;99.90;;;;;;5034249;28;20340;-71
2021/11/28 12:06:41;;;;;;;0.80;0.80;;;-2.20;99.90;;;;;;5032504;28;20232;-70
2021/11/28 12:09:23;;;;;;;0.80;0.80;;;-2.20;99.90;;;;;;5014630;28;20236;-71
2021/11/28 12:11:57;;;;;;;0.70;0.70;;;-2.20;99.90;;;;;;5014933;28;20210;-70
2021/11/28 12:14:23;;;;;;;0.77;0.77;;;-2.20;99.90;;;;;;5032629;28;20244;-74
2021/11/28 12:16:49;;;;;;;0.90;0.90;;;-2.20;99.90;;;;;;5016206;28;20280;-73
2021/11/28 12:19:50;;;;;;;0.90;0.90;;;-2.10;99.90;;;;;;5032651;28;20763;-72
2021/11/28 12:22:44;;;;;;;0.70;0.70;;;-2.10;99.90;;;;;;4953634;28;20317;-72
2021/11/28 12:25:51;;;;;;;0.90;0.90;;;-2.10;99.90;;;;;;4951781;28;20754;-72
2021/11/28 12:28:19;;;;;;;0.70;0.70;;;-2.10;99.90;;;;;;4937894;28;20212;-73
2021/11/28 12:30:50;;;;;;;0.93;0.93;;;-2.20;99.90;;;;;;4937167;28;20212;-71
2021/11/28 12:33:16;;;;;;;0.90;0.90;;;-2.10;99.90;;;;;;4951816;28;20255;-71
2021/11/28 12:35:42;;;;;;;0.80;0.80;;;-2.10;99.90;;;;;;4951836;28;20217;-73
2021/11/28 12:38:08;;;;;;;0.80;0.80;;;-2.10;99.90;;;;;;4952142;28;20209;-72
2021/11/28 12:40:36;;;;;;;0.75;0.75;;;-2.00;99.90;;;;;;4935628;28;20205;-71
2021/11/28 12:43:22;;;;;;;0.90;0.90;;;-2.10;99.90;;;;;;4952271;28;20755;-73
2021/11/28 12:45:49;;;;;;;0.73;0.73;;;-2.10;99.90;;;;;;4937561;28;20574;-73
2021/11/28 12:48:25;;;;;;;0.70;0.70;;;-2.20;99.90;;;;;;4953143;28;20209;-74
2021/11/28 12:51:01;;;;;;;0.80;0.80;;;-2.20;99.90;;;;;;4953137;28;20595;-73
2021/11/28 12:53:30;;;;;;;0.77;0.77;;;-2.20;99.90;;;;;;4936633;28;20207;-73
2021/11/28 12:56:11;;;;;;;1.03;1.03;;;-2.20;99.90;;;;;;4976809;28;20305;-71
2021/11/28 12:59:08;;;;;;;1.05;1.05;;;-2.20;99.90;;;;;;5015457;28;20687;-72
2021/11/28 13:01:47;;;;;;;0.80;0.80;;;-2.20;99.90;;;;;;5019402;28;20735;-74
2021/11/28 13:04:40;;;;;;;0.70;0.70;;;-2.20;99.90;;;;;;5031722;28;20709;-70
2021/11/28 13:07:24;;;;;;;0.95;0.95;;;-2.20;99.90;;;;;;5031570;28;20574;-71